createdAt,value
2023-05-11T00:00:46.379Z,4.30
2023-05-11T00:03:16.000Z,4.40
2023-05-11T00:05:48.442Z,5.00
2023-05-11T00:08:17.246Z,4.70
2023-05-11T00:10:49.022Z,4.60
2023-05-11T00:13:17.904Z,4.60
2023-05-11T00:15:46.272Z,5.00
2023-05-11T00:18:14.411Z,4.40
2023-05-11T00:20:42.912Z,4.30
2023-05-11T00:23:11.126Z,4.30
2023-05-11T00:25:39.529Z,4.60
2023-05-11T00:28:07.940Z,4.50
2023-05-11T00:30:36.167Z,4.70
2023-05-11T00:33:04.490Z,4.50
2023-05-11T00:35:33.014Z,4.80
2023-05-11T00:38:01.377Z,5.70
2023-05-11T00:40:31.935Z,4.70
2023-05-11T00:43:00.034Z,5.30
2023-05-11T00:45:28.590Z,4.30
2023-05-11T00:47:56.959Z,4.90
2023-05-11T00:50:25.775Z,4.90
2023-05-11T00:52:55.271Z,4.20
2023-05-11T00:55:23.545Z,5.10
2023-05-11T00:57:51.722Z,4.50
2023-05-11T01:00:20.268Z,4.50
2023-05-11T01:02:49.130Z,4.90
2023-05-11T01:05:17.724Z,5.20
2023-05-11T01:08:13.658Z,4.40
2023-05-11T01:10:53.784Z,4.20
2023-05-11T01:13:33.648Z,5.30
2023-05-11T01:16:09.314Z,4.60
2023-05-11T01:19:11.666Z,4.80
2023-05-11T01:21:41.306Z,3.70
2023-05-11T01:24:24.554Z,4.30
2023-05-11T01:27:19.427Z,4.20
2023-05-11T01:30:15.790Z,3.70
2023-05-11T01:32:46.340Z,4.30
2023-05-11T01:35:20.014Z,4.70
2023-05-11T01:37:55.634Z,4.00
2023-05-11T01:40:27.962Z,4.00
2023-05-11T01:43:14.357Z,4.20
2023-05-11T01:45:49.745Z,4.80
2023-05-11T01:48:23.946Z,5.30
2023-05-11T01:50:54.153Z,4.80
2023-05-11T01:53:24.038Z,3.80
2023-05-11T01:55:54.463Z,4.80
2023-05-11T01:58:24.534Z,4.50
2023-05-11T02:00:55.436Z,4.60
2023-05-11T02:03:26.070Z,4.80
2023-05-11T02:05:57.484Z,4.50
2023-05-11T02:08:27.370Z,4.70
2023-05-11T02:10:58.014Z,4.00
2023-05-11T02:13:28.752Z,4.70
2023-05-11T02:15:59.229Z,4.70
2023-05-11T02:18:29.126Z,4.30
2023-05-11T02:21:00.447Z,3.90
2023-05-11T02:23:32.163Z,4.30
2023-05-11T02:26:02.861Z,4.50
2023-05-11T02:28:31.839Z,5.70
2023-05-11T02:31:05.695Z,4.60
2023-05-11T02:33:50.737Z,4.80
2023-05-11T02:36:28.414Z,4.70
2023-05-11T02:39:04.475Z,4.60
2023-05-11T02:41:38.454Z,4.10
2023-05-11T02:44:11.791Z,5.30
2023-05-11T02:46:41.078Z,5.70
2023-05-11T02:49:11.134Z,5.60
2023-05-11T02:51:43.611Z,4.20
2023-05-11T02:54:13.406Z,5.10
2023-05-11T02:56:45.922Z,5.40
2023-05-11T02:59:15.785Z,5.40
2023-05-11T03:01:45.266Z,5.20
2023-05-11T03:04:13.930Z,4.80
2023-05-11T03:06:42.787Z,5.00
2023-05-11T03:09:12.189Z,5.30
2023-05-11T03:11:45.013Z,5.50
2023-05-11T03:14:14.224Z,4.80
2023-05-11T03:16:43.130Z,4.70
2023-05-11T03:19:13.376Z,4.70
2023-05-11T03:21:42.470Z,5.00
2023-05-11T03:24:12.354Z,4.70
2023-05-11T03:26:43.660Z,4.90
2023-05-11T03:29:13.711Z,5.90
2023-05-11T03:31:41.990Z,5.60
2023-05-11T03:34:10.310Z,5.30
2023-05-11T03:36:40.933Z,5.40
2023-05-11T03:39:12.603Z,5.10
2023-05-11T03:41:41.817Z,4.80
2023-05-11T03:44:12.362Z,4.90
2023-05-11T03:46:44.627Z,5.20
2023-05-11T03:49:13.851Z,5.10
2023-05-11T03:51:44.509Z,4.20
2023-05-11T03:54:13.397Z,4.80
2023-05-11T03:56:41.593Z,5.10
2023-05-11T03:59:14.681Z,4.80
2023-05-11T04:01:43.630Z,5.20
2023-05-11T04:04:12.342Z,4.70
2023-05-11T04:06:41.020Z,4.60
2023-05-11T04:09:16.900Z,4.70
2023-05-11T04:11:45.096Z,5.00
2023-05-11T04:14:13.466Z,5.10
2023-05-11T04:16:41.679Z,4.60
2023-05-11T04:19:10.754Z,5.10
2023-05-11T04:21:38.977Z,4.30
2023-05-11T04:24:07.225Z,4.70
2023-05-11T04:26:35.468Z,4.60
2023-05-11T04:29:05.202Z,5.00
2023-05-11T04:31:33.281Z,5.20
2023-05-11T04:34:03.996Z,4.80
2023-05-11T04:36:33.138Z,5.10
2023-05-11T04:39:01.334Z,4.30
2023-05-11T04:41:29.709Z,4.50
2023-05-11T04:44:00.038Z,4.90
2023-05-11T04:46:28.683Z,5.10
2023-05-11T04:48:57.185Z,4.90
2023-05-11T04:51:25.416Z,4.80
2023-05-11T04:53:53.591Z,5.80
2023-05-11T04:56:22.099Z,5.00
2023-05-11T04:58:51.464Z,4.80
2023-05-11T05:01:19.919Z,5.00
2023-05-11T05:03:49.930Z,4.70
2023-05-11T05:06:18.867Z,4.80
2023-05-11T05:08:47.064Z,4.90
2023-05-11T05:11:15.742Z,5.20
2023-05-11T05:13:44.562Z,5.20
2023-05-11T05:16:12.812Z,4.70
2023-05-11T05:18:40.976Z,4.20
2023-05-11T05:21:09.309Z,4.80
2023-05-11T05:23:37.432Z,4.10
2023-05-11T05:26:05.766Z,4.60
2023-05-11T05:28:36.173Z,3.90
2023-05-11T05:31:05.941Z,4.90
2023-05-11T05:33:34.262Z,4.90
2023-05-11T05:36:02.994Z,5.30
2023-05-11T05:38:31.461Z,5.60
2023-05-11T05:41:00.157Z,4.70
2023-05-11T05:43:31.031Z,5.00
2023-05-11T05:45:59.732Z,5.40
2023-05-11T05:48:30.129Z,6.10
2023-05-11T05:51:00.381Z,5.30
2023-05-11T05:53:29.304Z,5.40
2023-05-11T05:55:57.463Z,4.50
2023-05-11T05:58:25.604Z,4.50
2023-05-11T06:00:53.822Z,4.70
2023-05-11T06:03:22.074Z,4.60
2023-05-11T06:05:50.664Z,4.00
2023-05-11T06:08:18.979Z,4.20
2023-05-11T06:10:48.368Z,4.30
2023-05-11T06:13:16.939Z,5.60
2023-05-11T06:15:45.421Z,4.40
2023-05-11T06:18:19.632Z,4.90
2023-05-11T06:20:47.903Z,4.60
2023-05-11T06:23:16.929Z,4.50
2023-05-11T06:25:45.746Z,4.90
2023-05-11T06:28:14.501Z,4.50
2023-05-11T06:30:42.782Z,4.10
2023-05-11T06:33:11.282Z,4.40
2023-05-11T06:35:40.125Z,5.40
2023-05-11T06:38:10.256Z,4.00
2023-05-11T06:40:38.520Z,4.40
2023-05-11T06:43:09.740Z,5.30
2023-05-11T06:45:46.224Z,4.20
2023-05-11T06:48:14.458Z,4.90
2023-05-11T06:50:42.685Z,4.00
2023-05-11T06:53:14.356Z,4.10
2023-05-11T06:55:42.889Z,4.00
2023-05-11T06:58:14.295Z,4.20
2023-05-11T07:00:42.562Z,4.00
2023-05-11T07:03:11.084Z,3.20
2023-05-11T07:05:40.376Z,3.40
2023-05-11T07:08:09.908Z,3.60
2023-05-11T07:10:38.104Z,3.50
2023-05-11T07:13:06.262Z,3.50
2023-05-11T07:15:35.035Z,3.80
2023-05-11T07:18:03.168Z,2.70
2023-05-11T07:20:31.341Z,2.90
2023-05-11T07:22:59.630Z,2.30
2023-05-11T07:25:28.357Z,3.00
2023-05-11T07:27:56.745Z,2.50
2023-05-11T07:30:25.928Z,3.00
2023-05-11T07:32:54.470Z,2.40
2023-05-11T07:35:24.112Z,2.30
2023-05-11T07:37:52.682Z,2.40
2023-05-11T07:40:21.366Z,2.60
2023-05-11T07:42:49.900Z,2.40
2023-05-11T07:45:18.134Z,2.30
2023-05-11T07:47:46.360Z,2.70
2023-05-11T07:50:14.705Z,2.40
2023-05-11T07:52:42.912Z,2.60
2023-05-11T07:55:10.992Z,2.20
2023-05-11T07:57:39.190Z,2.40
2023-05-11T08:00:08.374Z,1.70
2023-05-11T08:02:45.279Z,1.60
2023-05-11T08:05:14.022Z,2.50
2023-05-11T08:07:42.181Z,1.70
2023-05-11T08:10:10.756Z,3.00
2023-05-11T08:12:39.177Z,2.00
2023-05-11T08:15:07.727Z,1.90
2023-05-11T08:17:36.885Z,2.30
2023-05-11T08:20:06.859Z,2.10
2023-05-11T08:22:35.378Z,2.00
2023-05-11T08:25:04.054Z,1.90
2023-05-11T08:27:32.243Z,1.90
2023-05-11T08:30:01.247Z,1.60
2023-05-11T08:32:29.836Z,1.40
2023-05-11T08:34:58.423Z,1.20
2023-05-11T08:37:26.815Z,1.60
2023-05-11T08:39:54.917Z,3.60
2023-05-11T08:42:25.391Z,1.40
2023-05-11T08:44:59.581Z,1.70
2023-05-11T08:47:28.432Z,1.50
2023-05-11T08:49:58.541Z,1.50
2023-05-11T08:52:28.246Z,1.90
2023-05-11T08:54:56.561Z,1.70
2023-05-11T08:57:27.404Z,2.70
2023-05-11T08:59:55.679Z,1.50
2023-05-11T09:02:25.552Z,2.10
2023-05-11T09:04:54.753Z,2.10
2023-05-11T09:07:24.926Z,1.70
2023-05-11T09:09:53.128Z,2.10
2023-05-11T09:12:21.408Z,2.10
2023-05-11T09:14:49.687Z,2.20
2023-05-11T09:17:17.879Z,1.80
2023-05-11T09:20:15.820Z,2.40
2023-05-11T09:22:46.606Z,2.00
2023-05-11T09:25:17.885Z,2.20
2023-05-11T09:27:47.598Z,1.50
2023-05-11T09:30:23.317Z,1.90
2023-05-11T09:33:00.148Z,1.70
2023-05-11T09:35:35.619Z,1.40
2023-05-11T09:38:12.479Z,1.90
2023-05-11T09:41:03.385Z,2.00
2023-05-11T09:43:31.558Z,1.50
2023-05-11T09:46:07.572Z,1.40
2023-05-11T09:48:36.099Z,2.10
2023-05-11T09:51:08.412Z,1.90
2023-05-11T09:53:43.037Z,2.00
2023-05-11T09:56:16.120Z,2.30
2023-05-11T09:58:49.589Z,2.60
2023-05-11T10:01:29.645Z,2.00
2023-05-11T10:04:09.565Z,2.20
2023-05-11T10:09:16.233Z,2.00
2023-05-11T10:11:46.325Z,2.00
2023-05-11T10:14:15.070Z,2.10
2023-05-11T10:16:44.285Z,2.20
2023-05-11T10:19:13.849Z,1.90
2023-05-11T10:21:42.490Z,2.30
2023-05-11T10:24:11.654Z,1.30
2023-05-11T10:26:40.314Z,2.20
2023-05-11T10:29:09.885Z,1.70
2023-05-11T10:31:38.676Z,1.50
2023-05-11T10:34:07.198Z,1.60
2023-05-11T10:36:35.438Z,2.00
2023-05-11T10:39:04.076Z,1.60
2023-05-11T10:41:32.253Z,1.90
2023-05-11T10:44:31.180Z,1.70
2023-05-11T10:47:11.746Z,1.30
2023-05-11T10:50:10.241Z,2.30
2023-05-11T10:53:21.868Z,1.90
2023-05-11T10:56:27.708Z,1.90
2023-05-11T10:59:22.875Z,2.40
2023-05-11T11:01:58.671Z,2.00
2023-05-11T11:04:42.668Z,2.60
2023-05-11T11:07:11.748Z,2.00
2023-05-11T11:10:00.722Z,1.80
2023-05-11T11:12:29.974Z,2.30
2023-05-11T11:15:03.245Z,1.80
2023-05-11T11:17:36.213Z,1.80
2023-05-11T11:20:10.284Z,1.90
2023-05-11T11:22:39.072Z,2.00
2023-05-11T11:25:12.081Z,1.70
2023-05-11T11:27:40.130Z,1.70
2023-05-11T11:30:29.246Z,2.00
2023-05-11T11:33:06.295Z,2.10
2023-05-11T11:35:40.666Z,1.90
2023-05-11T11:38:21.617Z,1.70
2023-05-11T11:40:54.292Z,1.90
2023-05-11T11:43:24.918Z,1.70
2023-05-11T11:45:54.393Z,2.10
2023-05-11T11:48:24.174Z,2.50
2023-05-11T11:51:14.120Z,2.00
2023-05-11T11:53:43.956Z,3.10
2023-05-11T11:56:15.166Z,2.70
2023-05-11T11:58:46.425Z,2.00
2023-05-11T12:01:20.244Z,2.40
2023-05-11T12:04:09.932Z,2.30
2023-05-11T12:06:40.639Z,3.10
2023-05-11T12:09:08.946Z,2.70
2023-05-11T12:11:38.553Z,2.20
2023-05-11T12:14:09.927Z,3.60
2023-05-11T12:16:38.219Z,2.70
2023-05-11T12:19:06.385Z,2.20
2023-05-11T12:21:34.723Z,1.70
2023-05-11T12:24:04.985Z,1.60
2023-05-11T12:26:34.759Z,3.30
2023-05-11T12:29:14.625Z,3.30
2023-05-11T12:31:45.980Z,9.60
2023-05-11T12:34:23.568Z,5.20
2023-05-11T12:36:54.391Z,21.70
2023-05-11T12:39:27.821Z,5.90
2023-05-11T12:41:57.110Z,4.90
2023-05-11T12:44:26.904Z,2.80
2023-05-11T12:46:55.475Z,1.90
2023-05-11T12:49:26.615Z,5.70
2023-05-11T12:51:55.478Z,4.20
2023-05-11T12:54:41.475Z,2.20
2023-05-11T12:57:29.801Z,1.70
2023-05-11T13:00:08.341Z,1.70
2023-05-11T13:02:44.948Z,3.60
2023-05-11T13:05:14.629Z,2.90
2023-05-11T13:07:44.527Z,3.10
2023-05-11T13:10:14.267Z,1.70
2023-05-11T13:12:52.337Z,1.70
2023-05-11T13:15:23.712Z,2.30
2023-05-11T13:18:00.781Z,1.60
2023-05-11T13:20:33.910Z,1.40
2023-05-11T13:23:16.070Z,1.50
2023-05-11T13:26:07.642Z,1.60
2023-05-11T13:28:35.906Z,1.60
2023-05-11T13:31:04.348Z,1.70
2023-05-11T13:33:32.630Z,1.80
2023-05-11T13:36:02.220Z,1.50
2023-05-11T13:38:30.369Z,1.30
2023-05-11T13:40:58.480Z,2.70
2023-05-11T13:43:26.934Z,2.40
2023-05-11T13:45:55.207Z,1.40
2023-05-11T13:48:23.291Z,2.20
2023-05-11T13:50:51.460Z,1.90
2023-05-11T13:53:19.581Z,3.50
2023-05-11T13:55:47.738Z,3.80
2023-05-11T13:58:16.046Z,3.30
2023-05-11T14:00:53.404Z,3.20
2023-05-11T14:03:33.598Z,3.50
2023-05-11T14:06:03.552Z,2.10
2023-05-11T14:08:31.826Z,3.60
2023-05-11T14:11:00.152Z,3.50
2023-05-11T14:13:28.493Z,2.80
2023-05-11T14:15:57.591Z,7.50
2023-05-11T14:18:26.382Z,2.10
2023-05-11T14:20:54.849Z,2.30
2023-05-11T14:23:22.928Z,2.20
2023-05-11T14:25:51.247Z,2.70
2023-05-11T14:28:19.502Z,1.70
2023-05-11T14:30:47.696Z,2.10
2023-05-11T14:33:16.565Z,2.40
2023-05-11T14:35:44.694Z,2.20
2023-05-11T14:38:12.925Z,2.40
2023-05-11T14:40:41.758Z,2.90
2023-05-11T14:43:10.075Z,2.00
2023-05-11T14:45:38.333Z,2.60
2023-05-11T14:48:07.342Z,3.00
2023-05-11T14:50:35.633Z,2.70
2023-05-11T14:53:03.920Z,2.70
2023-05-11T14:55:32.816Z,6.60
2023-05-11T14:58:04.218Z,5.50
2023-05-11T15:00:33.033Z,3.10
2023-05-11T15:03:01.180Z,2.10
2023-05-11T15:05:29.731Z,2.60
2023-05-11T15:07:59.743Z,2.50
2023-05-11T15:10:28.390Z,2.00
2023-05-11T15:12:56.547Z,2.10
2023-05-11T15:15:25.475Z,2.20
2023-05-11T15:17:54.237Z,2.00
2023-05-11T15:20:22.535Z,3.10
2023-05-11T15:22:50.670Z,7.00
2023-05-11T15:25:19.697Z,2.80
2023-05-11T15:27:48.074Z,3.10
2023-05-11T15:30:21.755Z,1.70
2023-05-11T15:32:50.546Z,2.50
2023-05-11T15:35:21.274Z,2.70
2023-05-11T15:37:49.696Z,2.40
2023-05-11T15:40:17.790Z,2.20
2023-05-11T15:42:46.131Z,3.70
2023-05-11T15:45:14.289Z,2.10
2023-05-11T15:47:42.641Z,2.10
2023-05-11T15:50:10.895Z,2.70
2023-05-11T15:52:43.353Z,2.60
2023-05-11T15:55:11.601Z,2.10
2023-05-11T15:57:39.869Z,1.90
2023-05-11T16:00:10.706Z,1.90
2023-05-11T16:02:38.990Z,2.60
2023-05-11T16:05:07.380Z,2.20
2023-05-11T16:07:35.527Z,2.30
2023-05-11T16:10:04.682Z,2.50
2023-05-11T16:12:37.986Z,5.20
2023-05-11T16:15:07.710Z,2.80
2023-05-11T16:17:43.759Z,2.40
2023-05-11T16:20:12.627Z,1.90
2023-05-11T16:22:42.681Z,2.30
2023-05-11T16:25:10.897Z,2.30
2023-05-11T16:27:49.246Z,2.60
2023-05-11T16:30:24.331Z,2.30
2023-05-11T16:33:02.536Z,2.10
2023-05-11T16:35:31.037Z,4.10
2023-05-11T16:38:00.012Z,2.60
2023-05-11T16:40:28.174Z,4.10
2023-05-11T16:43:03.606Z,5.90
2023-05-11T16:45:31.738Z,6.40
2023-05-11T16:48:00.317Z,10.00
2023-05-11T16:50:28.692Z,12.00
2023-05-11T16:53:33.338Z,8.60
2023-05-11T16:56:23.284Z,5.30
2023-05-11T16:58:53.238Z,4.90
2023-05-11T17:01:43.381Z,11.00
2023-05-11T17:04:12.588Z,16.80
2023-05-11T17:07:03.384Z,21.40
2023-05-11T17:09:31.532Z,37.50
2023-05-11T17:12:15.292Z,54.70
2023-05-11T17:14:43.513Z,77.30
2023-05-11T17:17:34.235Z,62.60
2023-05-11T17:20:07.797Z,47.50
2023-05-11T17:22:37.603Z,24.50
2023-05-11T17:25:06.402Z,25.70
2023-05-11T17:27:37.320Z,32.50
2023-05-11T17:30:06.441Z,20.90
2023-05-11T17:33:15.185Z,10.50
2023-05-11T17:35:43.944Z,11.50
2023-05-11T17:38:16.301Z,9.80
2023-05-11T17:40:45.230Z,11.50
2023-05-11T17:43:13.992Z,9.00
2023-05-11T17:45:42.570Z,7.70
2023-05-11T17:48:19.382Z,8.90
2023-05-11T17:50:47.621Z,7.20
2023-05-11T17:53:18.417Z,8.60
2023-05-11T17:55:46.700Z,8.80
2023-05-11T17:58:22.901Z,7.00
2023-05-11T18:00:51.080Z,7.30
2023-05-11T18:03:19.402Z,11.30
2023-05-11T18:05:49.085Z,13.70
2023-05-11T18:08:33.262Z,16.90
2023-05-11T18:11:30.452Z,13.90
2023-05-11T18:13:58.865Z,14.30
2023-05-11T18:16:49.814Z,10.70
2023-05-11T18:19:18.401Z,10.50
2023-05-11T18:22:07.374Z,9.60
2023-05-11T18:24:35.566Z,6.70
2023-05-11T18:27:45.869Z,5.80
2023-05-11T18:30:14.583Z,7.80
2023-05-11T18:33:03.485Z,8.20
2023-05-11T18:35:31.779Z,8.10
2023-05-11T18:38:20.007Z,9.20
2023-05-11T18:40:48.263Z,6.70
2023-05-11T18:43:16.403Z,6.90
2023-05-11T18:45:46.486Z,7.70
2023-05-11T18:48:22.746Z,5.50
2023-05-11T18:50:55.394Z,6.80
2023-05-11T18:53:33.622Z,6.50
2023-05-11T18:56:01.892Z,6.00
2023-05-11T18:58:46.665Z,7.50
2023-05-11T19:01:30.262Z,8.80
2023-05-11T19:04:01.493Z,6.30
2023-05-11T19:06:53.607Z,6.70
2023-05-11T19:09:23.002Z,6.00
2023-05-11T19:12:19.941Z,6.40
2023-05-11T19:14:48.313Z,6.50
2023-05-11T19:17:32.518Z,6.00
2023-05-11T19:20:01.068Z,5.90
2023-05-11T19:22:31.187Z,5.70
2023-05-11T19:25:00.813Z,5.00
2023-05-11T19:27:46.462Z,5.30
2023-05-11T19:30:14.732Z,5.80
2023-05-11T19:33:00.517Z,4.30
2023-05-11T19:35:28.890Z,4.80
2023-05-11T19:38:06.464Z,6.80
2023-05-11T19:40:46.108Z,10.60
2023-05-11T19:43:15.309Z,8.80
2023-05-11T19:45:45.596Z,6.80
2023-05-11T19:48:16.429Z,6.70
2023-05-11T19:50:44.649Z,6.10
2023-05-11T19:53:16.764Z,6.80
2023-05-11T19:55:47.761Z,5.60
2023-05-11T19:58:24.632Z,7.80
2023-05-11T20:00:52.714Z,7.80
2023-05-11T20:03:37.380Z,8.10
2023-05-11T20:06:05.872Z,6.60
2023-05-11T20:08:51.718Z,6.70
2023-05-11T20:11:20.018Z,5.70
2023-05-11T20:13:50.138Z,5.10
2023-05-11T20:16:18.465Z,5.30
2023-05-11T20:18:50.550Z,4.20
2023-05-11T20:21:18.813Z,4.70
2023-05-11T20:24:03.566Z,5.30
2023-05-11T20:26:32.052Z,5.50
2023-05-11T20:29:00.549Z,6.20
2023-05-11T20:31:29.290Z,5.70
2023-05-11T20:36:29.592Z,8.40
2023-05-11T20:38:57.743Z,6.10
2023-05-11T20:41:25.849Z,5.80
2023-05-11T20:44:13.994Z,4.60
2023-05-11T20:46:50.197Z,5.90
2023-05-11T20:49:30.760Z,5.80
2023-05-11T20:52:07.749Z,5.30
2023-05-11T20:54:36.183Z,4.70
2023-05-11T20:57:21.119Z,5.30
2023-05-11T21:02:36.834Z,4.30
2023-05-11T21:05:05.342Z,4.00
2023-05-11T21:07:53.537Z,3.50
2023-05-11T21:10:21.940Z,4.30
2023-05-11T21:12:58.204Z,4.40
2023-05-11T21:15:26.598Z,3.90
2023-05-11T21:17:54.926Z,4.20
2023-05-11T21:20:23.527Z,4.00
2023-05-11T21:22:52.870Z,3.90
2023-05-11T21:25:21.147Z,3.80
2023-05-11T21:27:57.140Z,4.20
2023-05-11T21:30:25.252Z,3.80
2023-05-11T21:32:55.716Z,4.50
2023-05-11T21:35:24.347Z,4.30
2023-05-11T21:38:12.707Z,6.10
2023-05-11T21:40:41.965Z,7.00
2023-05-11T21:43:14.660Z,4.90
2023-05-11T21:45:45.278Z,4.90
2023-05-11T21:48:15.794Z,5.20
2023-05-11T21:50:44.555Z,5.20
2023-05-11T21:53:29.185Z,4.70
2023-05-11T21:55:57.474Z,4.60
2023-05-11T21:58:34.512Z,4.20
2023-05-11T22:01:03.029Z,4.10
2023-05-11T22:03:48.266Z,5.00
2023-05-11T22:06:16.552Z,3.80
2023-05-11T22:09:01.357Z,4.70
2023-05-11T22:11:29.619Z,5.10
2023-05-11T22:14:14.455Z,3.90
2023-05-11T22:16:42.735Z,4.10
2023-05-11T22:19:27.562Z,3.80
2023-05-11T22:21:57.408Z,3.50
2023-05-11T22:24:34.970Z,4.10
2023-05-11T22:27:19.833Z,4.00
2023-05-11T22:29:48.253Z,3.90
2023-05-11T22:32:18.748Z,3.60
2023-05-11T22:34:46.916Z,3.70
2023-05-11T22:37:22.937Z,3.40
2023-05-11T22:39:51.116Z,4.00
2023-05-11T22:42:35.349Z,3.30
2023-05-11T22:45:03.754Z,3.00
2023-05-11T22:47:40.187Z,3.30
2023-05-11T22:50:12.003Z,3.70
2023-05-11T22:52:56.564Z,4.30
2023-05-11T22:55:25.430Z,4.20
2023-05-11T22:57:53.705Z,3.70
2023-05-11T23:00:22.350Z,4.40
2023-05-11T23:02:59.302Z,4.10
2023-05-11T23:05:27.561Z,3.70
2023-05-11T23:08:11.648Z,3.30
2023-05-11T23:10:39.802Z,2.80
2023-05-11T23:13:18.143Z,3.70
2023-05-11T23:15:46.241Z,3.80
2023-05-11T23:18:15.284Z,3.40
2023-05-11T23:20:43.527Z,3.90
2023-05-11T23:23:21.272Z,4.10
2023-05-11T23:25:49.383Z,3.80
2023-05-11T23:28:20.348Z,3.40
2023-05-11T23:30:48.503Z,3.70
2023-05-11T23:33:17.205Z,3.20
2023-05-11T23:35:45.338Z,3.20
2023-05-11T23:38:21.570Z,3.70
2023-05-11T23:40:49.760Z,3.40
2023-05-11T23:43:26.075Z,4.00
2023-05-11T23:45:57.603Z,3.70
2023-05-11T23:48:29.938Z,3.60
2023-05-11T23:50:58.169Z,3.90
2023-05-11T23:53:30.264Z,3.60
2023-05-11T23:55:58.651Z,3.20
2023-05-11T23:58:34.979Z,3.20
